sensor_id;sensor_type;location;lat;lon;timestamp;P1;durP1;ratioP1;P2;durP2;ratioP2
2934;SDS011;2462;51.456;7.248;2022-10-31T00:01:00;12.73;;;8.30;;
2934;SDS011;2462;51.456;7.248;2022-10-31T00:03:26;15.30;;;8.48;;
2934;SDS011;2462;51.456;7.248;2022-10-31T00:05:51;14.43;;;7.53;;
2934;SDS011;2462;51.456;7.248;2022-10-31T00:08:18;13.02;;;8.30;;
2934;SDS011;2462;51.456;7.248;2022-10-31T00:10:44;14.27;;;8.80;;
2934;SDS011;2462;51.456;7.248;2022-10-31T00:13:11;13.48;;;9.20;;
2934;SDS011;2462;51.456;7.248;2022-10-31T00:15:37;11.90;;;7.75;;
2934;SDS011;2462;51.456;7.248;2022-10-31T00:18:04;10.68;;;7.20;;
2934;SDS011;2462;51.456;7.248;2022-10-31T00:20:31;16.50;;;8.02;;
2934;SDS011;2462;51.456;7.248;2022-10-31T00:22:57;14.63;;;8.37;;
2934;SDS011;2462;51.456;7.248;2022-10-31T00:25:23;13.50;;;8.38;;
2934;SDS011;2462;51.456;7.248;2022-10-31T00:27:49;14.90;;;8.00;;
2934;SDS011;2462;51.456;7.248;2022-10-31T00:30:14;13.30;;;7.75;;
2934;SDS011;2462;51.456;7.248;2022-10-31T00:32:40;14.97;;;8.07;;
2934;SDS011;2462;51.456;7.248;2022-10-31T00:35:06;11.17;;;7.80;;
2934;SDS011;2462;51.456;7.248;2022-10-31T00:37:31;12.77;;;7.88;;
2934;SDS011;2462;51.456;7.248;2022-10-31T00:39:57;13.45;;;7.80;;
2934;SDS011;2462;51.456;7.248;2022-10-31T00:42:23;11.60;;;7.93;;
2934;SDS011;2462;51.456;7.248;2022-10-31T00:44:48;13.20;;;7.73;;
2934;SDS011;2462;51.456;7.248;2022-10-31T00:47:14;12.77;;;8.43;;
2934;SDS011;2462;51.456;7.248;2022-10-31T00:49:39;12.10;;;8.10;;
2934;SDS011;2462;51.456;7.248;2022-10-31T00:52:05;13.93;;;8.13;;
2934;SDS011;2462;51.456;7.248;2022-10-31T00:54:30;11.83;;;8.03;;
2934;SDS011;2462;51.456;7.248;2022-10-31T00:56:56;15.45;;;8.02;;
2934;SDS011;2462;51.456;7.248;2022-10-31T00:59:22;14.17;;;7.47;;
2934;SDS011;2462;51.456;7.248;2022-10-31T01:01:48;12.90;;;7.70;;
2934;SDS011;2462;51.456;7.248;2022-10-31T01:04:13;14.75;;;8.30;;
2934;SDS011;2462;51.456;7.248;2022-10-31T01:06:39;16.15;;;8.10;;
2934;SDS011;2462;51.456;7.248;2022-10-31T01:09:04;12.27;;;6.87;;
2934;SDS011;2462;51.456;7.248;2022-10-31T01:11:30;15.10;;;7.60;;
2934;SDS011;2462;51.456;7.248;2022-10-31T01:13:56;15.35;;;7.75;;
2934;SDS011;2462;51.456;7.248;2022-10-31T01:16:23;13.40;;;8.15;;
2934;SDS011;2462;51.456;7.248;2022-10-31T01:18:50;13.00;;;7.60;;
2934;SDS011;2462;51.456;7.248;2022-10-31T01:21:17;11.55;;;7.25;;
2934;SDS011;2462;51.456;7.248;2022-10-31T01:23:45;15.65;;;8.40;;
2934;SDS011;2462;51.456;7.248;2022-10-31T01:26:12;13.93;;;7.63;;
2934;SDS011;2462;51.456;7.248;2022-10-31T01:28:58;13.40;;;8.13;;
2934;SDS011;2462;51.456;7.248;2022-10-31T01:31:34;12.13;;;8.20;;
2934;SDS011;2462;51.456;7.248;2022-10-31T01:34:01;11.27;;;7.95;;
2934;SDS011;2462;51.456;7.248;2022-10-31T01:36:28;14.50;;;8.40;;
2934;SDS011;2462;51.456;7.248;2022-10-31T01:39:02;13.55;;;7.78;;
2934;SDS011;2462;51.456;7.248;2022-10-31T01:41:34;15.25;;;7.85;;
2934;SDS011;2462;51.456;7.248;2022-10-31T01:44:02;15.70;;;8.50;;
2934;SDS011;2462;51.456;7.248;2022-10-31T01:46:52;17.80;;;8.70;;
2934;SDS011;2462;51.456;7.248;2022-10-31T01:49:33;15.52;;;8.95;;
2934;SDS011;2462;51.456;7.248;2022-10-31T01:52:07;13.75;;;8.80;;
2934;SDS011;2462;51.456;7.248;2022-10-31T01:54:45;12.68;;;7.85;;
2934;SDS011;2462;51.456;7.248;2022-10-31T01:57:16;13.18;;;8.02;;
2934;SDS011;2462;51.456;7.248;2022-10-31T01:59:45;14.27;;;7.80;;
2934;SDS011;2462;51.456;7.248;2022-10-31T02:02:15;13.45;;;8.10;;
2934;SDS011;2462;51.456;7.248;2022-10-31T02:04:42;15.07;;;8.30;;
2934;SDS011;2462;51.456;7.248;2022-10-31T02:07:10;11.67;;;8.10;;
2934;SDS011;2462;51.456;7.248;2022-10-31T02:09:39;12.10;;;8.35;;
2934;SDS011;2462;51.456;7.248;2022-10-31T02:12:06;12.35;;;7.90;;
2934;SDS011;2462;51.456;7.248;2022-10-31T02:14:33;14.23;;;7.90;;
2934;SDS011;2462;51.456;7.248;2022-10-31T02:17:00;15.07;;;8.90;;
2934;SDS011;2462;51.456;7.248;2022-10-31T02:22:24;13.93;;;8.73;;
2934;SDS011;2462;51.456;7.248;2022-10-31T02:25:02;17.38;;;8.90;;
2934;SDS011;2462;51.456;7.248;2022-10-31T02:27:40;13.73;;;8.73;;
2934;SDS011;2462;51.456;7.248;2022-10-31T02:30:21;14.50;;;8.00;;
2934;SDS011;2462;51.456;7.248;2022-10-31T02:33:00;11.65;;;8.13;;
2934;SDS011;2462;51.456;7.248;2022-10-31T02:36:03;12.18;;;8.52;;
2934;SDS011;2462;51.456;7.248;2022-10-31T02:46:49;12.45;;;8.45;;
2934;SDS011;2462;51.456;7.248;2022-10-31T02:49:27;14.32;;;7.80;;
2934;SDS011;2462;51.456;7.248;2022-10-31T02:52:17;15.15;;;7.80;;
2934;SDS011;2462;51.456;7.248;2022-10-31T02:54:48;12.82;;;7.90;;
2934;SDS011;2462;51.456;7.248;2022-10-31T02:57:14;14.82;;;7.97;;
2934;SDS011;2462;51.456;7.248;2022-10-31T02:59:45;16.58;;;8.20;;
2934;SDS011;2462;51.456;7.248;2022-10-31T03:15:44;14.07;;;8.47;;
2934;SDS011;2462;51.456;7.248;2022-10-31T03:18:26;13.50;;;7.50;;
2934;SDS011;2462;51.456;7.248;2022-10-31T03:20:58;14.80;;;7.20;;
2934;SDS011;2462;51.456;7.248;2022-10-31T03:23:39;14.75;;;8.60;;
2934;SDS011;2462;51.456;7.248;2022-10-31T03:26:07;15.75;;;8.77;;
2934;SDS011;2462;51.456;7.248;2022-10-31T03:28:38;12.68;;;8.40;;
2934;SDS011;2462;51.456;7.248;2022-10-31T03:31:11;14.15;;;8.88;;
2934;SDS011;2462;51.456;7.248;2022-10-31T03:33:41;14.15;;;8.30;;
2934;SDS011;2462;51.456;7.248;2022-10-31T03:36:08;16.47;;;8.97;;
2934;SDS011;2462;51.456;7.248;2022-10-31T03:38:36;20.27;;;8.85;;
2934;SDS011;2462;51.456;7.248;2022-10-31T03:41:04;13.80;;;9.20;;
2934;SDS011;2462;51.456;7.248;2022-10-31T03:43:36;13.73;;;8.38;;
2934;SDS011;2462;51.456;7.248;2022-10-31T03:46:07;12.82;;;7.95;;
2934;SDS011;2462;51.456;7.248;2022-10-31T03:48:33;13.67;;;8.80;;
2934;SDS011;2462;51.456;7.248;2022-10-31T03:51:06;17.97;;;9.10;;
2934;SDS011;2462;51.456;7.248;2022-10-31T03:56:07;15.55;;;9.18;;
2934;SDS011;2462;51.456;7.248;2022-10-31T03:58:46;12.73;;;8.68;;
2934;SDS011;2462;51.456;7.248;2022-10-31T04:01:49;13.50;;;8.70;;
2934;SDS011;2462;51.456;7.248;2022-10-31T04:04:20;18.33;;;8.60;;
2934;SDS011;2462;51.456;7.248;2022-10-31T04:06:46;17.83;;;8.25;;
2934;SDS011;2462;51.456;7.248;2022-10-31T04:09:14;14.05;;;7.95;;
2934;SDS011;2462;51.456;7.248;2022-10-31T04:11:42;14.75;;;8.90;;
2934;SDS011;2462;51.456;7.248;2022-10-31T04:14:13;13.30;;;8.57;;
2934;SDS011;2462;51.456;7.248;2022-10-31T04:16:39;17.27;;;9.68;;
2934;SDS011;2462;51.456;7.248;2022-10-31T04:19:07;14.53;;;8.80;;
2934;SDS011;2462;51.456;7.248;2022-10-31T04:21:33;13.40;;;8.87;;
2934;SDS011;2462;51.456;7.248;2022-10-31T04:23:58;16.20;;;9.60;;
2934;SDS011;2462;51.456;7.248;2022-10-31T04:26:24;11.88;;;8.57;;
2934;SDS011;2462;51.456;7.248;2022-10-31T04:28:50;16.75;;;9.00;;
2934;SDS011;2462;51.456;7.248;2022-10-31T04:31:15;12.93;;;8.73;;
2934;SDS011;2462;51.456;7.248;2022-10-31T04:33:41;16.50;;;8.90;;
2934;SDS011;2462;51.456;7.248;2022-10-31T04:36:06;15.20;;;8.70;;
2934;SDS011;2462;51.456;7.248;2022-10-31T04:38:32;14.38;;;9.35;;
2934;SDS011;2462;51.456;7.248;2022-10-31T04:40:58;14.40;;;9.07;;
2934;SDS011;2462;51.456;7.248;2022-10-31T04:43:24;14.50;;;9.30;;
2934;SDS011;2462;51.456;7.248;2022-10-31T04:45:49;13.47;;;9.00;;
2934;SDS011;2462;51.456;7.248;2022-10-31T04:48:15;15.65;;;9.20;;
2934;SDS011;2462;51.456;7.248;2022-10-31T04:50:41;14.60;;;9.48;;
2934;SDS011;2462;51.456;7.248;2022-10-31T04:53:06;14.37;;;9.07;;
2934;SDS011;2462;51.456;7.248;2022-10-31T04:55:31;15.13;;;9.50;;
2934;SDS011;2462;51.456;7.248;2022-10-31T04:57:57;16.27;;;9.38;;
2934;SDS011;2462;51.456;7.248;2022-10-31T05:00:23;15.40;;;8.93;;
2934;SDS011;2462;51.456;7.248;2022-10-31T05:02:50;12.93;;;8.90;;
2934;SDS011;2462;51.456;7.248;2022-10-31T05:05:21;12.93;;;8.90;;
2934;SDS011;2462;51.456;7.248;2022-10-31T05:07:49;14.03;;;9.53;;
2934;SDS011;2462;51.456;7.248;2022-10-31T05:10:16;15.13;;;9.10;;
2934;SDS011;2462;51.456;7.248;2022-10-31T05:12:46;16.83;;;9.50;;
2934;SDS011;2462;51.456;7.248;2022-10-31T05:15:20;15.93;;;9.48;;
2934;SDS011;2462;51.456;7.248;2022-10-31T05:17:47;14.57;;;9.40;;
2934;SDS011;2462;51.456;7.248;2022-10-31T05:20:13;14.43;;;8.87;;
2934;SDS011;2462;51.456;7.248;2022-10-31T05:22:50;19.88;;;10.02;;
2934;SDS011;2462;51.456;7.248;2022-10-31T05:25:17;16.15;;;8.95;;
2934;SDS011;2462;51.456;7.248;2022-10-31T05:27:45;14.50;;;9.02;;
2934;SDS011;2462;51.456;7.248;2022-10-31T05:30:13;14.30;;;9.32;;
2934;SDS011;2462;51.456;7.248;2022-10-31T05:32:44;14.30;;;9.48;;
2934;SDS011;2462;51.456;7.248;2022-10-31T05:35:12;16.02;;;9.63;;
2934;SDS011;2462;51.456;7.248;2022-10-31T05:37:45;17.55;;;9.50;;
2934;SDS011;2462;51.456;7.248;2022-10-31T05:40:12;15.27;;;8.98;;
2934;SDS011;2462;51.456;7.248;2022-10-31T05:42:39;15.18;;;9.52;;
2934;SDS011;2462;51.456;7.248;2022-10-31T05:45:06;12.97;;;9.40;;
2934;SDS011;2462;51.456;7.248;2022-10-31T05:47:33;15.20;;;9.45;;
2934;SDS011;2462;51.456;7.248;2022-10-31T05:49:58;16.97;;;9.67;;
2934;SDS011;2462;51.456;7.248;2022-10-31T05:52:24;15.68;;;10.02;;
2934;SDS011;2462;51.456;7.248;2022-10-31T05:54:49;16.15;;;9.90;;
2934;SDS011;2462;51.456;7.248;2022-10-31T05:57:15;21.03;;;10.50;;
2934;SDS011;2462;51.456;7.248;2022-10-31T05:59:40;12.73;;;9.83;;
2934;SDS011;2462;51.456;7.248;2022-10-31T06:02:06;16.60;;;9.70;;
2934;SDS011;2462;51.456;7.248;2022-10-31T06:04:31;15.85;;;9.35;;
2934;SDS011;2462;51.456;7.248;2022-10-31T06:06:57;18.05;;;9.70;;
2934;SDS011;2462;51.456;7.248;2022-10-31T06:09:23;15.10;;;9.70;;
2934;SDS011;2462;51.456;7.248;2022-10-31T06:11:48;14.57;;;9.87;;
2934;SDS011;2462;51.456;7.248;2022-10-31T06:14:14;15.50;;;9.35;;
2934;SDS011;2462;51.456;7.248;2022-10-31T06:16:39;16.25;;;9.95;;
2934;SDS011;2462;51.456;7.248;2022-10-31T06:19:05;18.83;;;10.00;;
2934;SDS011;2462;51.456;7.248;2022-10-31T06:21:30;15.20;;;9.40;;
2934;SDS011;2462;51.456;7.248;2022-10-31T06:23:56;13.30;;;9.80;;
2934;SDS011;2462;51.456;7.248;2022-10-31T06:26:21;13.27;;;9.93;;
2934;SDS011;2462;51.456;7.248;2022-10-31T06:28:47;16.70;;;9.98;;
2934;SDS011;2462;51.456;7.248;2022-10-31T06:31:13;18.10;;;10.80;;
2934;SDS011;2462;51.456;7.248;2022-10-31T06:33:40;15.73;;;9.80;;
2934;SDS011;2462;51.456;7.248;2022-10-31T06:36:06;15.67;;;10.00;;
2934;SDS011;2462;51.456;7.248;2022-10-31T06:38:32;17.60;;;10.33;;
2934;SDS011;2462;51.456;7.248;2022-10-31T06:40:57;13.40;;;9.83;;
2934;SDS011;2462;51.456;7.248;2022-10-31T06:43:28;17.65;;;10.00;;
2934;SDS011;2462;51.456;7.248;2022-10-31T06:45:53;17.00;;;10.00;;
2934;SDS011;2462;51.456;7.248;2022-10-31T06:48:19;15.80;;;9.63;;
2934;SDS011;2462;51.456;7.248;2022-10-31T06:50:44;19.23;;;10.03;;
2934;SDS011;2462;51.456;7.248;2022-10-31T06:53:10;14.40;;;10.10;;
2934;SDS011;2462;51.456;7.248;2022-10-31T06:55:35;15.88;;;9.25;;
2934;SDS011;2462;51.456;7.248;2022-10-31T06:58:01;15.40;;;9.10;;
2934;SDS011;2462;51.456;7.248;2022-10-31T07:00:27;13.30;;;9.43;;
2934;SDS011;2462;51.456;7.248;2022-10-31T07:02:58;20.20;;;10.30;;
2934;SDS011;2462;51.456;7.248;2022-10-31T07:05:26;13.57;;;9.27;;
2934;SDS011;2462;51.456;7.248;2022-10-31T07:07:59;18.00;;;10.20;;
2934;SDS011;2462;51.456;7.248;2022-10-31T07:10:28;15.85;;;10.63;;
2934;SDS011;2462;51.456;7.248;2022-10-31T07:12:59;14.27;;;9.65;;
2934;SDS011;2462;51.456;7.248;2022-10-31T07:15:28;18.35;;;9.77;;
2934;SDS011;2462;51.456;7.248;2022-10-31T07:17:59;14.35;;;10.27;;
2934;SDS011;2462;51.456;7.248;2022-10-31T07:20:26;17.02;;;9.90;;
2934;SDS011;2462;51.456;7.248;2022-10-31T07:22:52;16.17;;;9.57;;
2934;SDS011;2462;51.456;7.248;2022-10-31T07:25:17;17.27;;;10.97;;
2934;SDS011;2462;51.456;7.248;2022-10-31T07:27:43;14.10;;;9.57;;
2934;SDS011;2462;51.456;7.248;2022-10-31T07:30:10;20.00;;;9.80;;
2934;SDS011;2462;51.456;7.248;2022-10-31T07:32:37;21.25;;;10.70;;
2934;SDS011;2462;51.456;7.248;2022-10-31T07:35:10;19.88;;;11.45;;
2934;SDS011;2462;51.456;7.248;2022-10-31T07:37:38;20.05;;;11.35;;
2934;SDS011;2462;51.456;7.248;2022-10-31T07:40:04;20.15;;;11.68;;
2934;SDS011;2462;51.456;7.248;2022-10-31T07:42:37;18.58;;;10.93;;
2934;SDS011;2462;51.456;7.248;2022-10-31T07:45:07;20.83;;;11.95;;
2934;SDS011;2462;51.456;7.248;2022-10-31T07:47:40;19.35;;;11.35;;
2934;SDS011;2462;51.456;7.248;2022-10-31T07:50:07;24.00;;;11.93;;
2934;SDS011;2462;51.456;7.248;2022-10-31T07:52:35;18.38;;;11.20;;
2934;SDS011;2462;51.456;7.248;2022-10-31T07:55:00;16.40;;;10.50;;
2934;SDS011;2462;51.456;7.248;2022-10-31T07:57:26;17.27;;;11.02;;
2934;SDS011;2462;51.456;7.248;2022-10-31T07:59:52;19.60;;;11.70;;
2934;SDS011;2462;51.456;7.248;2022-10-31T08:02:17;18.23;;;11.50;;
2934;SDS011;2462;51.456;7.248;2022-10-31T08:04:43;17.97;;;12.20;;
2934;SDS011;2462;51.456;7.248;2022-10-31T08:07:08;18.60;;;11.43;;
2934;SDS011;2462;51.456;7.248;2022-10-31T08:09:34;21.85;;;11.60;;
2934;SDS011;2462;51.456;7.248;2022-10-31T08:11:59;22.13;;;12.00;;
2934;SDS011;2462;51.456;7.248;2022-10-31T08:14:26;20.33;;;12.50;;
2934;SDS011;2462;51.456;7.248;2022-10-31T08:16:52;19.73;;;11.83;;
2934;SDS011;2462;51.456;7.248;2022-10-31T08:19:18;21.65;;;11.40;;
2934;SDS011;2462;51.456;7.248;2022-10-31T08:21:44;19.90;;;11.68;;
2934;SDS011;2462;51.456;7.248;2022-10-31T08:24:09;22.08;;;12.60;;
2934;SDS011;2462;51.456;7.248;2022-10-31T08:26:34;17.67;;;11.13;;
2934;SDS011;2462;51.456;7.248;2022-10-31T08:29:00;20.37;;;11.60;;
2934;SDS011;2462;51.456;7.248;2022-10-31T08:31:26;20.38;;;12.57;;
2934;SDS011;2462;51.456;7.248;2022-10-31T08:33:52;17.70;;;12.65;;
2934;SDS011;2462;51.456;7.248;2022-10-31T08:36:21;18.48;;;11.60;;
2934;SDS011;2462;51.456;7.248;2022-10-31T08:38:47;20.95;;;12.00;;
2934;SDS011;2462;51.456;7.248;2022-10-31T08:41:13;22.55;;;12.00;;
2934;SDS011;2462;51.456;7.248;2022-10-31T08:43:39;21.92;;;12.50;;
2934;SDS011;2462;51.456;7.248;2022-10-31T08:46:05;20.80;;;11.60;;
2934;SDS011;2462;51.456;7.248;2022-10-31T08:48:31;20.85;;;12.00;;
2934;SDS011;2462;51.456;7.248;2022-10-31T08:50:57;22.08;;;11.82;;
2934;SDS011;2462;51.456;7.248;2022-10-31T08:53:24;21.35;;;11.90;;
2934;SDS011;2462;51.456;7.248;2022-10-31T08:55:51;20.27;;;12.23;;
2934;SDS011;2462;51.456;7.248;2022-10-31T08:58:19;21.05;;;12.02;;
2934;SDS011;2462;51.456;7.248;2022-10-31T09:00:46;18.67;;;11.30;;
2934;SDS011;2462;51.456;7.248;2022-10-31T09:03:14;22.87;;;12.37;;
2934;SDS011;2462;51.456;7.248;2022-10-31T09:05:41;19.00;;;11.27;;
2934;SDS011;2462;51.456;7.248;2022-10-31T09:08:07;22.87;;;12.80;;
2934;SDS011;2462;51.456;7.248;2022-10-31T09:10:34;18.50;;;12.20;;
2934;SDS011;2462;51.456;7.248;2022-10-31T09:13:02;22.30;;;12.30;;
2934;SDS011;2462;51.456;7.248;2022-10-31T09:15:31;23.50;;;12.93;;
2934;SDS011;2462;51.456;7.248;2022-10-31T09:17:58;18.67;;;13.23;;
2934;SDS011;2462;51.456;7.248;2022-10-31T09:20:24;23.25;;;13.38;;
2934;SDS011;2462;51.456;7.248;2022-10-31T09:25:51;20.50;;;12.65;;
2934;SDS011;2462;51.456;7.248;2022-10-31T09:28:21;20.08;;;13.13;;
2934;SDS011;2462;51.456;7.248;2022-10-31T09:30:48;20.00;;;12.93;;
2934;SDS011;2462;51.456;7.248;2022-10-31T09:33:16;21.60;;;12.65;;
2934;SDS011;2462;51.456;7.248;2022-10-31T09:35:42;18.30;;;12.40;;
2934;SDS011;2462;51.456;7.248;2022-10-31T09:38:09;22.50;;;14.00;;
2934;SDS011;2462;51.456;7.248;2022-10-31T09:45:55;23.63;;;12.70;;
2934;SDS011;2462;51.456;7.248;2022-10-31T09:48:34;21.85;;;13.27;;
2934;SDS011;2462;51.456;7.248;2022-10-31T09:51:04;25.10;;;14.80;;
2934;SDS011;2462;51.456;7.248;2022-10-31T09:56:20;21.23;;;13.10;;
2934;SDS011;2462;51.456;7.248;2022-10-31T09:58:48;23.17;;;13.77;;
2934;SDS011;2462;51.456;7.248;2022-10-31T10:01:23;20.85;;;13.45;;
2934;SDS011;2462;51.456;7.248;2022-10-31T10:03:52;21.48;;;13.18;;
2934;SDS011;2462;51.456;7.248;2022-10-31T10:06:24;25.08;;;12.90;;
2934;SDS011;2462;51.456;7.248;2022-10-31T10:08:54;26.17;;;13.75;;
2934;SDS011;2462;51.456;7.248;2022-10-31T10:14:26;21.30;;;13.50;;
2934;SDS011;2462;51.456;7.248;2022-10-31T10:17:40;20.50;;;13.05;;
2934;SDS011;2462;51.456;7.248;2022-10-31T10:25:37;20.23;;;12.98;;
2934;SDS011;2462;51.456;7.248;2022-10-31T10:28:21;23.50;;;13.40;;
2934;SDS011;2462;51.456;7.248;2022-10-31T10:30:59;23.30;;;13.73;;
2934;SDS011;2462;51.456;7.248;2022-10-31T10:33:40;23.20;;;14.50;;
2934;SDS011;2462;51.456;7.248;2022-10-31T10:36:16;26.47;;;14.00;;
2934;SDS011;2462;51.456;7.248;2022-10-31T10:38:50;23.63;;;14.32;;
2934;SDS011;2462;51.456;7.248;2022-10-31T10:41:21;20.13;;;13.70;;
2934;SDS011;2462;51.456;7.248;2022-10-31T10:43:49;26.75;;;14.85;;
2934;SDS011;2462;51.456;7.248;2022-10-31T10:54:59;28.08;;;15.25;;
2934;SDS011;2462;51.456;7.248;2022-10-31T11:00:21;26.50;;;15.48;;
2934;SDS011;2462;51.456;7.248;2022-10-31T11:03:07;26.85;;;14.35;;
2934;SDS011;2462;51.456;7.248;2022-10-31T11:05:38;24.30;;;15.10;;
2934;SDS011;2462;51.456;7.248;2022-10-31T11:08:10;28.95;;;17.20;;
2934;SDS011;2462;51.456;7.248;2022-10-31T11:10:36;22.75;;;15.23;;
2934;SDS011;2462;51.456;7.248;2022-10-31T11:18:29;27.35;;;15.63;;
2934;SDS011;2462;51.456;7.248;2022-10-31T11:20:58;26.67;;;15.05;;
2934;SDS011;2462;51.456;7.248;2022-10-31T11:23:25;28.02;;;15.95;;
2934;SDS011;2462;51.456;7.248;2022-10-31T11:25:56;24.35;;;15.90;;
2934;SDS011;2462;51.456;7.248;2022-10-31T11:28:30;23.02;;;15.75;;
2934;SDS011;2462;51.456;7.248;2022-10-31T11:31:00;22.13;;;14.32;;
2934;SDS011;2462;51.456;7.248;2022-10-31T11:33:32;24.48;;;13.55;;
2934;SDS011;2462;51.456;7.248;2022-10-31T11:36:03;26.40;;;14.10;;
2934;SDS011;2462;51.456;7.248;2022-10-31T11:38:45;22.13;;;13.98;;
2934;SDS011;2462;51.456;7.248;2022-10-31T11:41:18;23.00;;;12.85;;
2934;SDS011;2462;51.456;7.248;2022-10-31T11:43:54;26.50;;;12.55;;
2934;SDS011;2462;51.456;7.248;2022-10-31T11:49:15;17.15;;;11.43;;
2934;SDS011;2462;51.456;7.248;2022-10-31T11:51:42;26.57;;;12.30;;
2934;SDS011;2462;51.456;7.248;2022-10-31T11:54:24;21.40;;;12.00;;
2934;SDS011;2462;51.456;7.248;2022-10-31T11:56:53;17.70;;;11.40;;
2934;SDS011;2462;51.456;7.248;2022-10-31T11:59:23;16.00;;;10.70;;
2934;SDS011;2462;51.456;7.248;2022-10-31T12:01:52;17.85;;;11.10;;
2934;SDS011;2462;51.456;7.248;2022-10-31T12:04:18;22.90;;;11.30;;
2934;SDS011;2462;51.456;7.248;2022-10-31T12:07:10;19.35;;;12.00;;
2934;SDS011;2462;51.456;7.248;2022-10-31T12:09:36;19.05;;;11.73;;
2934;SDS011;2462;51.456;7.248;2022-10-31T12:12:19;19.73;;;12.38;;
2934;SDS011;2462;51.456;7.248;2022-10-31T12:17:52;18.52;;;11.63;;
2934;SDS011;2462;51.456;7.248;2022-10-31T12:21:05;19.45;;;11.80;;
2934;SDS011;2462;51.456;7.248;2022-10-31T12:23:37;18.33;;;10.25;;
2934;SDS011;2462;51.456;7.248;2022-10-31T12:26:49;18.15;;;10.88;;
2934;SDS011;2462;51.456;7.248;2022-10-31T12:35:43;14.48;;;9.93;;
2934;SDS011;2462;51.456;7.248;2022-10-31T12:45:55;20.83;;;9.52;;
2934;SDS011;2462;51.456;7.248;2022-10-31T12:48:27;18.38;;;9.23;;
2934;SDS011;2462;51.456;7.248;2022-10-31T12:53:52;14.07;;;8.05;;
2934;SDS011;2462;51.456;7.248;2022-10-31T12:59:28;16.02;;;8.55;;
2934;SDS011;2462;51.456;7.248;2022-10-31T13:04:48;19.60;;;8.60;;
2934;SDS011;2462;51.456;7.248;2022-10-31T13:07:17;18.08;;;8.98;;
2934;SDS011;2462;51.456;7.248;2022-10-31T13:10:13;28.98;;;9.00;;
2934;SDS011;2462;51.456;7.248;2022-10-31T13:12:46;21.33;;;8.18;;
2934;SDS011;2462;51.456;7.248;2022-10-31T13:15:19;18.83;;;8.15;;
2934;SDS011;2462;51.456;7.248;2022-10-31T13:17:49;16.90;;;8.02;;
2934;SDS011;2462;51.456;7.248;2022-10-31T13:20:33;15.50;;;8.40;;
2934;SDS011;2462;51.456;7.248;2022-10-31T13:25:53;14.88;;;7.25;;
2934;SDS011;2462;51.456;7.248;2022-10-31T13:31:08;15.85;;;7.38;;
2934;SDS011;2462;51.456;7.248;2022-10-31T13:33:38;10.80;;;6.60;;
2934;SDS011;2462;51.456;7.248;2022-10-31T13:36:38;15.07;;;6.10;;
2934;SDS011;2462;51.456;7.248;2022-10-31T13:44:44;11.88;;;6.60;;
2934;SDS011;2462;51.456;7.248;2022-10-31T13:47:24;12.35;;;6.60;;
2934;SDS011;2462;51.456;7.248;2022-10-31T13:49:51;11.95;;;6.88;;
2934;SDS011;2462;51.456;7.248;2022-10-31T13:52:27;10.52;;;6.38;;
2934;SDS011;2462;51.456;7.248;2022-10-31T13:54:54;11.80;;;6.88;;
2934;SDS011;2462;51.456;7.248;2022-10-31T13:57:27;13.73;;;6.45;;
2934;SDS011;2462;51.456;7.248;2022-10-31T14:02:35;13.90;;;6.23;;
2934;SDS011;2462;51.456;7.248;2022-10-31T14:05:19;13.60;;;6.80;;
2934;SDS011;2462;51.456;7.248;2022-10-31T14:07:51;12.17;;;6.00;;
2934;SDS011;2462;51.456;7.248;2022-10-31T14:10:32;14.18;;;6.75;;
2934;SDS011;2462;51.456;7.248;2022-10-31T14:18:31;13.80;;;6.25;;
2934;SDS011;2462;51.456;7.248;2022-10-31T14:21:13;10.10;;;6.22;;
2934;SDS011;2462;51.456;7.248;2022-10-31T14:23:48;9.90;;;6.40;;
2934;SDS011;2462;51.456;7.248;2022-10-31T14:28:52;11.77;;;6.47;;
2934;SDS011;2462;51.456;7.248;2022-10-31T14:31:34;12.00;;;5.85;;
2934;SDS011;2462;51.456;7.248;2022-10-31T14:34:14;13.30;;;5.90;;
2934;SDS011;2462;51.456;7.248;2022-10-31T14:36:46;10.27;;;5.90;;
2934;SDS011;2462;51.456;7.248;2022-10-31T14:39:40;10.38;;;5.50;;
2934;SDS011;2462;51.456;7.248;2022-10-31T14:50:24;13.10;;;6.83;;
2934;SDS011;2462;51.456;7.248;2022-10-31T14:52:56;10.70;;;5.88;;
2934;SDS011;2462;51.456;7.248;2022-10-31T14:55:25;12.07;;;5.75;;
2934;SDS011;2462;51.456;7.248;2022-10-31T14:57:54;15.70;;;6.30;;
2934;SDS011;2462;51.456;7.248;2022-10-31T15:00:25;11.93;;;6.10;;
2934;SDS011;2462;51.456;7.248;2022-10-31T15:03:12;12.85;;;5.80;;
2934;SDS011;2462;51.456;7.248;2022-10-31T15:05:51;10.73;;;5.70;;
2934;SDS011;2462;51.456;7.248;2022-10-31T15:11:21;12.43;;;6.00;;
2934;SDS011;2462;51.456;7.248;2022-10-31T15:13:58;15.00;;;6.28;;
2934;SDS011;2462;51.456;7.248;2022-10-31T15:16:30;11.50;;;5.27;;
2934;SDS011;2462;51.456;7.248;2022-10-31T15:18:59;11.68;;;5.78;;
2934;SDS011;2462;51.456;7.248;2022-10-31T15:21:28;10.95;;;5.18;;
2934;SDS011;2462;51.456;7.248;2022-10-31T15:23:58;12.77;;;6.15;;
2934;SDS011;2462;51.456;7.248;2022-10-31T15:26:40;14.63;;;6.57;;
2934;SDS011;2462;51.456;7.248;2022-10-31T15:29:13;13.43;;;5.97;;
2934;SDS011;2462;51.456;7.248;2022-10-31T15:31:54;11.48;;;5.82;;
2934;SDS011;2462;51.456;7.248;2022-10-31T15:34:37;10.57;;;5.80;;
2934;SDS011;2462;51.456;7.248;2022-10-31T15:37:07;15.60;;;5.90;;
2934;SDS011;2462;51.456;7.248;2022-10-31T15:39:39;12.93;;;6.22;;
2934;SDS011;2462;51.456;7.248;2022-10-31T15:42:04;10.80;;;5.53;;
2934;SDS011;2462;51.456;7.248;2022-10-31T15:44:40;9.60;;;6.15;;
2934;SDS011;2462;51.456;7.248;2022-10-31T15:47:13;10.25;;;6.50;;
2934;SDS011;2462;51.456;7.248;2022-10-31T15:49:42;11.02;;;5.85;;
2934;SDS011;2462;51.456;7.248;2022-10-31T15:55:05;11.35;;;5.70;;
2934;SDS011;2462;51.456;7.248;2022-10-31T15:57:38;13.70;;;6.45;;
2934;SDS011;2462;51.456;7.248;2022-10-31T16:00:20;15.50;;;5.93;;
2934;SDS011;2462;51.456;7.248;2022-10-31T16:05:48;14.45;;;6.32;;
2934;SDS011;2462;51.456;7.248;2022-10-31T16:08:26;10.40;;;5.57;;
2934;SDS011;2462;51.456;7.248;2022-10-31T16:13:35;10.52;;;5.28;;
2934;SDS011;2462;51.456;7.248;2022-10-31T16:16:13;10.23;;;4.90;;
2934;SDS011;2462;51.456;7.248;2022-10-31T16:18:40;12.20;;;5.10;;
2934;SDS011;2462;51.456;7.248;2022-10-31T16:21:06;9.93;;;5.30;;
2934;SDS011;2462;51.456;7.248;2022-10-31T16:23:33;8.57;;;5.50;;
2934;SDS011;2462;51.456;7.248;2022-10-31T16:25:59;10.60;;;4.93;;
2934;SDS011;2462;51.456;7.248;2022-10-31T16:28:25;14.02;;;5.93;;
2934;SDS011;2462;51.456;7.248;2022-10-31T16:30:53;11.27;;;5.70;;
2934;SDS011;2462;51.456;7.248;2022-10-31T16:33:21;10.50;;;6.30;;
2934;SDS011;2462;51.456;7.248;2022-10-31T16:35:56;10.57;;;5.65;;
2934;SDS011;2462;51.456;7.248;2022-10-31T16:38:23;9.40;;;5.10;;
2934;SDS011;2462;51.456;7.248;2022-10-31T16:40:49;11.23;;;4.60;;
2934;SDS011;2462;51.456;7.248;2022-10-31T16:43:16;12.45;;;5.72;;
2934;SDS011;2462;51.456;7.248;2022-10-31T16:45:44;10.85;;;5.60;;
2934;SDS011;2462;51.456;7.248;2022-10-31T16:48:14;10.65;;;4.90;;
2934;SDS011;2462;51.456;7.248;2022-10-31T16:50:42;10.98;;;4.82;;
2934;SDS011;2462;51.456;7.248;2022-10-31T16:53:10;8.30;;;4.30;;
2934;SDS011;2462;51.456;7.248;2022-10-31T16:55:55;10.82;;;4.65;;
2934;SDS011;2462;51.456;7.248;2022-10-31T16:58:27;10.25;;;4.97;;
2934;SDS011;2462;51.456;7.248;2022-10-31T17:00:54;12.32;;;5.00;;
2934;SDS011;2462;51.456;7.248;2022-10-31T17:03:20;9.50;;;4.25;;
2934;SDS011;2462;51.456;7.248;2022-10-31T17:05:46;9.00;;;4.50;;
2934;SDS011;2462;51.456;7.248;2022-10-31T17:08:12;11.20;;;4.93;;
2934;SDS011;2462;51.456;7.248;2022-10-31T17:10:38;7.70;;;4.10;;
2934;SDS011;2462;51.456;7.248;2022-10-31T17:13:05;11.00;;;4.90;;
2934;SDS011;2462;51.456;7.248;2022-10-31T17:15:37;9.18;;;4.63;;
2934;SDS011;2462;51.456;7.248;2022-10-31T17:18:06;11.82;;;4.80;;
2934;SDS011;2462;51.456;7.248;2022-10-31T17:20:31;9.47;;;5.27;;
2934;SDS011;2462;51.456;7.248;2022-10-31T17:22:57;9.80;;;5.15;;
2934;SDS011;2462;51.456;7.248;2022-10-31T17:25:28;8.20;;;4.55;;
2934;SDS011;2462;51.456;7.248;2022-10-31T17:27:56;9.77;;;4.95;;
2934;SDS011;2462;51.456;7.248;2022-10-31T17:30:22;10.07;;;4.97;;